METAR Data
IDs: Format: Raw Decoded Include TAF

Data at: 0803 UTC 23 Oct 2018

METAR for:KCMH (Columbus Intl, OH, US)
Text:KCMH 230751Z 18004KT 10SM CLR 07/01 A3008 RMK AO2 SLP188 T00720011
Temperature: 7.2°C ( 45°F)
Dewpoint: 1.1°C ( 34°F) [RH = 65%]
Pressure (altimeter):30.08 inches Hg (1018.7 mb) [Sea level pressure: 1018.8 mb]
Winds:from the S (180 degrees) at 5 MPH (4 knots; 2.1 m/s)
Visibility:10 or more sm (16+ km)
Ceiling:at least 12,000 feet AGL
Clouds:sky clear below 12,000 feet AGL